createdAt,value
2022-11-20T00:00:28.300Z,83.60
2022-11-20T00:02:55.699Z,83.52
2022-11-20T00:05:23.183Z,84.24
2022-11-20T00:07:50.595Z,83.13
2022-11-20T00:10:18.093Z,83.17
2022-11-20T00:12:46.855Z,84.38
2022-11-20T00:15:14.267Z,83.52
2022-11-20T00:17:41.679Z,82.61
2022-11-20T00:20:10.607Z,83.14
2022-11-20T00:22:38.106Z,82.42
2022-11-20T00:25:06.149Z,84.78
2022-11-20T00:27:33.536Z,84.12
2022-11-20T00:30:02.385Z,82.36
2022-11-20T00:32:29.812Z,83.15
2022-11-20T00:34:57.196Z,82.88
2022-11-20T00:37:24.647Z,84.32
2022-11-20T00:39:52.075Z,83.80
2022-11-20T00:42:19.572Z,82.32
2022-11-20T00:44:46.935Z,83.39
2022-11-20T00:47:15.731Z,82.83
2022-11-20T00:49:43.235Z,82.01
2022-11-20T00:52:10.785Z,83.36
2022-11-20T00:54:38.303Z,83.13
2022-11-20T00:57:05.666Z,83.00
2022-11-20T00:59:33.045Z,81.70
2022-11-20T01:02:00.472Z,82.27
2022-11-20T01:04:29.195Z,81.35
2022-11-20T01:06:56.632Z,82.85
2022-11-20T01:09:24.291Z,83.40
2022-11-20T01:11:51.813Z,82.77
2022-11-20T01:14:21.210Z,81.85
2022-11-20T01:16:50.971Z,82.86
2022-11-20T01:19:20.574Z,82.29
2022-11-20T01:21:51.416Z,83.30
2022-11-20T01:24:20.263Z,82.58
2022-11-20T01:26:49.939Z,81.90
2022-11-20T01:29:20.423Z,83.00
2022-11-20T01:31:48.293Z,81.67
2022-11-20T01:34:18.204Z,82.26
2022-11-20T01:36:46.679Z,82.03
2022-11-20T01:39:18.474Z,81.37
2022-11-20T01:42:09.393Z,80.28
2022-11-20T01:44:53.473Z,84.38
2022-11-20T01:47:26.006Z,83.88
2022-11-20T01:49:58.551Z,81.31
2022-11-20T01:52:33.308Z,84.06
2022-11-20T01:55:05.872Z,83.87
2022-11-20T01:57:36.106Z,83.49
2022-11-20T02:00:07.817Z,82.55
2022-11-20T02:02:36.014Z,81.14
2022-11-20T02:05:12.461Z,83.19
2022-11-20T02:07:40.631Z,85.63
2022-11-20T02:10:09.758Z,85.23
2022-11-20T02:12:54.823Z,82.50
2022-11-20T02:15:26.199Z,84.80
2022-11-20T02:17:56.515Z,83.08
2022-11-20T02:20:23.919Z,84.49
2022-11-20T02:22:58.071Z,81.80
2022-11-20T02:25:29.660Z,83.99
2022-11-20T02:27:57.841Z,83.21
2022-11-20T02:30:25.672Z,83.39
2022-11-20T02:32:53.433Z,83.34
2022-11-20T02:35:43.880Z,82.21
2022-11-20T02:38:12.433Z,81.95
2022-11-20T02:40:41.167Z,83.66
2022-11-20T02:43:09.896Z,82.95
2022-11-20T02:45:37.447Z,83.03
2022-11-20T02:48:04.889Z,82.70
2022-11-20T02:50:32.371Z,83.53
2022-11-20T02:52:59.762Z,81.69
2022-11-20T02:55:27.231Z,83.11
2022-11-20T02:57:55.940Z,82.57
2022-11-20T03:00:23.680Z,81.78
2022-11-20T03:02:51.080Z,80.64
2022-11-20T03:05:18.507Z,81.09
2022-11-20T03:07:46.333Z,81.07
2022-11-20T03:10:13.835Z,81.59
2022-11-20T03:12:41.205Z,82.94
2022-11-20T03:15:11.339Z,84.06
2022-11-20T03:17:38.766Z,82.59
2022-11-20T03:20:07.634Z,82.33
2022-11-20T03:22:35.084Z,80.97
2022-11-20T03:25:02.523Z,80.72
2022-11-20T03:27:34.045Z,80.82
2022-11-20T03:30:01.431Z,80.02
2022-11-20T03:32:30.168Z,79.91
2022-11-20T03:34:57.594Z,78.95
2022-11-20T03:37:25.073Z,79.93
2022-11-20T03:39:52.464Z,81.11
2022-11-20T03:42:37.456Z,81.74
2022-11-20T03:45:05.468Z,81.48
2022-11-20T03:47:34.213Z,80.70
2022-11-20T03:50:01.674Z,79.64
2022-11-20T03:52:29.081Z,79.68
2022-11-20T03:54:56.523Z,80.53
2022-11-20T03:57:23.958Z,82.03
2022-11-20T03:59:51.382Z,82.29
2022-11-20T04:02:18.834Z,83.47
2022-11-20T04:04:47.602Z,82.49
2022-11-20T04:07:15.155Z,82.13
2022-11-20T04:09:42.602Z,82.69
2022-11-20T04:12:10.090Z,80.81
2022-11-20T04:14:37.824Z,82.08
2022-11-20T04:17:05.774Z,82.61
2022-11-20T04:19:33.179Z,80.97
2022-11-20T04:22:01.927Z,79.55
2022-11-20T04:24:29.339Z,80.89
2022-11-20T04:26:56.725Z,81.43
2022-11-20T04:29:24.257Z,81.15
2022-11-20T04:31:51.779Z,80.58
2022-11-20T04:34:19.203Z,81.29
2022-11-20T04:36:46.604Z,82.72
2022-11-20T04:39:16.368Z,81.59
2022-11-20T04:41:43.996Z,80.82
2022-11-20T04:44:11.466Z,81.77
2022-11-20T04:46:41.198Z,82.70
2022-11-20T04:49:09.459Z,84.77
2022-11-20T04:51:37.074Z,83.99
2022-11-20T04:54:04.830Z,83.68
2022-11-20T04:56:33.547Z,82.14
2022-11-20T04:59:02.786Z,82.83
2022-11-20T05:01:30.525Z,83.33
2022-11-20T05:03:57.948Z,83.27
2022-11-20T05:06:25.331Z,81.92
2022-11-20T05:08:53.223Z,83.92
2022-11-20T05:11:23.000Z,84.25
2022-11-20T05:13:53.284Z,83.68
2022-11-20T05:16:23.000Z,84.73
2022-11-20T05:18:51.153Z,84.16
2022-11-20T05:21:19.534Z,82.71
2022-11-20T05:23:47.589Z,82.39
2022-11-20T05:26:17.354Z,81.54
2022-11-20T05:28:44.801Z,81.93
2022-11-20T05:31:15.062Z,81.33
2022-11-20T05:33:43.610Z,81.55
2022-11-20T05:36:11.757Z,80.82
2022-11-20T05:38:39.454Z,81.07
2022-11-20T05:41:07.697Z,82.03
2022-11-20T05:43:36.052Z,80.99
2022-11-20T05:46:03.877Z,80.30
2022-11-20T05:48:35.185Z,80.79
2022-11-20T05:51:04.531Z,80.42
2022-11-20T05:53:31.947Z,80.08
2022-11-20T05:56:00.340Z,81.41
2022-11-20T05:58:28.595Z,80.99
2022-11-20T06:00:56.319Z,81.72
2022-11-20T06:03:23.690Z,82.05
2022-11-20T06:05:52.452Z,81.81
2022-11-20T06:08:19.965Z,80.79
2022-11-20T06:10:47.426Z,81.76
2022-11-20T06:13:14.833Z,86.46
2022-11-20T06:15:42.252Z,84.28
2022-11-20T06:18:09.641Z,83.23
2022-11-20T06:20:41.915Z,86.02
2022-11-20T06:23:11.043Z,85.51
2022-11-20T06:25:39.631Z,83.53
2022-11-20T06:28:07.001Z,82.94
2022-11-20T06:30:34.881Z,83.63
2022-11-20T06:33:02.273Z,84.47
2022-11-20T06:35:29.706Z,82.79
2022-11-20T06:37:57.672Z,82.14
2022-11-20T06:40:26.426Z,82.31
2022-11-20T06:42:55.606Z,82.10
2022-11-20T06:45:23.150Z,83.49
2022-11-20T06:47:50.551Z,84.04
2022-11-20T06:50:18.152Z,83.79
2022-11-20T06:52:45.544Z,82.65
2022-11-20T06:55:12.923Z,82.24
2022-11-20T06:57:41.626Z,82.16
2022-11-20T07:00:10.154Z,83.61
2022-11-20T07:02:37.577Z,83.02
2022-11-20T07:05:05.675Z,82.97
2022-11-20T07:07:33.169Z,81.47
2022-11-20T07:10:00.594Z,83.95
2022-11-20T07:12:28.446Z,82.10
2022-11-20T07:14:57.535Z,82.94
2022-11-20T07:17:24.960Z,82.63
2022-11-20T07:19:52.325Z,84.41
2022-11-20T07:22:22.524Z,83.24
2022-11-20T07:24:50.177Z,82.84
2022-11-20T07:27:17.571Z,80.88
2022-11-20T07:29:44.972Z,81.38
2022-11-20T07:32:13.707Z,81.61
2022-11-20T07:34:41.065Z,80.66
2022-11-20T07:37:10.452Z,83.65
2022-11-20T07:39:38.101Z,83.07
2022-11-20T07:42:05.591Z,81.46
2022-11-20T07:44:32.997Z,81.90
2022-11-20T07:47:00.453Z,82.65
2022-11-20T07:49:29.237Z,82.22
2022-11-20T07:52:00.430Z,81.32
2022-11-20T07:54:30.598Z,80.06
2022-11-20T07:56:57.982Z,80.30
2022-11-20T07:59:25.557Z,79.24
2022-11-20T08:01:52.921Z,81.04
2022-11-20T08:04:20.317Z,80.41
2022-11-20T08:06:49.324Z,79.82
2022-11-20T08:09:16.718Z,80.91
2022-11-20T08:12:01.932Z,79.25
2022-11-20T08:14:29.335Z,79.30
2022-11-20T08:16:56.715Z,79.95
2022-11-20T08:19:24.223Z,78.76
2022-11-20T08:21:53.257Z,77.60
2022-11-20T08:24:20.667Z,78.22
2022-11-20T08:26:48.038Z,78.38
2022-11-20T08:29:15.475Z,78.75
2022-11-20T08:31:42.890Z,80.87
2022-11-20T08:34:12.872Z,79.99
2022-11-20T08:36:42.467Z,78.69
2022-11-20T08:39:13.963Z,78.51
2022-11-20T08:41:41.333Z,77.61
2022-11-20T08:44:09.726Z,78.01
2022-11-20T08:46:38.741Z,78.00
2022-11-20T08:49:06.939Z,79.54
2022-11-20T08:51:34.624Z,78.61
2022-11-20T08:54:02.408Z,78.69
2022-11-20T08:56:31.664Z,77.27
2022-11-20T09:01:47.702Z,100.00
2022-11-20T09:04:15.502Z,88.08
2022-11-20T09:06:43.094Z,80.15
2022-11-20T09:09:10.480Z,67.40
2022-11-20T09:11:39.197Z,68.68
2022-11-20T09:14:06.632Z,71.75
2022-11-20T09:16:34.106Z,74.52
2022-11-20T09:19:28.648Z,74.60
2022-11-20T09:21:49.345Z,77.01
2022-11-20T09:24:16.719Z,75.08
2022-11-20T09:26:45.530Z,74.80
2022-11-20T09:29:12.917Z,75.16
2022-11-20T09:31:40.358Z,75.37
2022-11-20T09:34:07.809Z,76.26
2022-11-20T09:36:35.270Z,76.00
2022-11-20T09:39:02.883Z,75.69
2022-11-20T09:42:06.401Z,75.23
2022-11-20T09:44:47.180Z,75.42
2022-11-20T09:47:24.636Z,75.31
2022-11-20T09:50:04.034Z,77.21
2022-11-20T09:52:39.555Z,75.81
2022-11-20T09:55:10.696Z,77.00
2022-11-20T09:57:42.387Z,76.73
2022-11-20T10:00:13.998Z,75.37
2022-11-20T10:02:47.667Z,76.15
2022-11-20T10:05:20.344Z,75.62
2022-11-20T10:07:56.137Z,75.12
2022-11-20T10:10:32.889Z,74.20
2022-11-20T10:13:16.348Z,74.57
2022-11-20T10:15:55.255Z,78.00
2022-11-20T10:18:35.484Z,75.56
2022-11-20T10:21:11.598Z,76.77
2022-11-20T10:24:26.181Z,75.28
2022-11-20T10:27:05.650Z,74.52
2022-11-20T10:29:36.822Z,75.85
2022-11-20T10:32:09.568Z,75.72
2022-11-20T10:34:48.795Z,75.23
2022-11-20T10:37:21.005Z,74.80
2022-11-20T10:39:56.074Z,74.39
2022-11-20T10:42:30.931Z,75.45
2022-11-20T10:45:13.253Z,74.49
2022-11-20T10:47:40.642Z,74.99
2022-11-20T10:50:22.536Z,74.03
2022-11-20T10:52:57.894Z,74.92
2022-11-20T10:55:34.813Z,74.40
2022-11-20T10:58:11.906Z,75.11
2022-11-20T11:00:40.758Z,74.79
2022-11-20T11:03:22.522Z,73.18
2022-11-20T11:05:56.003Z,74.12
2022-11-20T11:08:23.626Z,73.86
2022-11-20T11:10:55.688Z,72.45
2022-11-20T11:13:24.146Z,74.29
2022-11-20T11:15:53.484Z,74.82
2022-11-20T11:18:28.352Z,75.05
2022-11-20T11:20:57.465Z,73.64
2022-11-20T11:23:32.746Z,73.67
2022-11-20T11:26:01.860Z,74.49
2022-11-20T11:28:29.854Z,73.78
2022-11-20T11:30:58.647Z,77.32
2022-11-20T11:33:28.302Z,74.53
2022-11-20T11:35:59.076Z,74.69
2022-11-20T11:38:32.655Z,74.97
2022-11-20T11:41:00.832Z,77.13
2022-11-20T11:44:03.993Z,77.78
2022-11-20T11:46:35.535Z,77.86
2022-11-20T11:49:14.502Z,77.85
2022-11-20T11:51:52.312Z,76.95
2022-11-20T11:54:25.103Z,76.92
2022-11-20T11:56:53.574Z,76.95
2022-11-20T11:59:29.093Z,76.12
2022-11-20T12:02:03.946Z,79.73
2022-11-20T12:07:18.244Z,79.85
2022-11-20T12:09:54.098Z,79.66
2022-11-20T12:12:26.709Z,80.56
2022-11-20T12:14:57.205Z,78.54
2022-11-20T12:17:26.087Z,78.35
2022-11-20T12:19:53.684Z,77.69
2022-11-20T12:22:32.734Z,77.32
2022-11-20T12:25:06.036Z,77.74
2022-11-20T12:27:50.523Z,77.57
2022-11-20T12:30:20.663Z,76.62
2022-11-20T12:33:19.917Z,76.13
2022-11-20T12:36:01.454Z,77.22
2022-11-20T12:38:44.211Z,75.28
2022-11-20T12:41:38.419Z,75.79
2022-11-20T12:44:37.615Z,76.58
2022-11-20T12:47:18.226Z,75.24
2022-11-20T12:49:52.582Z,75.75
2022-11-20T12:52:34.095Z,76.26
2022-11-20T12:55:15.005Z,73.66
2022-11-20T12:57:50.722Z,75.05
2022-11-20T13:00:21.234Z,74.41
2022-11-20T13:03:08.788Z,78.00
2022-11-20T13:05:47.278Z,75.35
2022-11-20T13:08:22.367Z,75.93
2022-11-20T13:10:58.548Z,73.68
2022-11-20T13:13:32.982Z,75.24
2022-11-20T13:16:06.542Z,75.86
2022-11-20T13:18:40.165Z,75.65
2022-11-20T13:21:17.549Z,78.54
2022-11-20T13:23:44.981Z,76.20
2022-11-20T13:26:24.594Z,76.84
2022-11-20T13:29:04.454Z,77.11
2022-11-20T13:31:34.334Z,77.46
2022-11-20T13:34:05.104Z,77.04
2022-11-20T13:36:35.925Z,77.98
2022-11-20T13:39:04.133Z,79.21
2022-11-20T13:41:36.158Z,77.74
2022-11-20T13:44:13.051Z,78.53
2022-11-20T13:46:44.300Z,79.91
2022-11-20T13:49:20.111Z,79.40
2022-11-20T13:51:51.540Z,78.84
2022-11-20T13:54:52.621Z,78.26
2022-11-20T13:57:38.698Z,77.43
2022-11-20T14:00:14.031Z,77.22
2022-11-20T14:02:42.541Z,77.20
2022-11-20T14:05:21.511Z,77.27
2022-11-20T14:07:52.782Z,78.56
2022-11-20T14:10:29.931Z,78.65
2022-11-20T14:12:59.355Z,79.32
2022-11-20T14:15:28.950Z,80.73
2022-11-20T14:17:56.707Z,81.97
2022-11-20T14:20:27.381Z,80.08
2022-11-20T14:22:57.306Z,81.15
2022-11-20T14:25:28.097Z,79.88
2022-11-20T14:27:57.406Z,79.38
2022-11-20T14:30:26.724Z,80.52
2022-11-20T14:32:57.506Z,78.99
2022-11-20T14:35:27.998Z,78.38
2022-11-20T14:37:57.654Z,79.22
2022-11-20T14:40:34.784Z,77.72
2022-11-20T14:43:02.247Z,79.13
2022-11-20T14:45:30.187Z,79.36
2022-11-20T14:47:59.868Z,77.43
2022-11-20T14:50:29.386Z,79.64
2022-11-20T14:53:00.378Z,79.79
2022-11-20T14:55:29.778Z,77.66
2022-11-20T14:57:58.001Z,79.13
2022-11-20T15:00:26.286Z,78.81
2022-11-20T15:02:54.361Z,78.25
2022-11-20T15:05:24.357Z,78.49
2022-11-20T15:07:54.184Z,77.96
2022-11-20T15:10:25.420Z,77.47
2022-11-20T15:12:54.757Z,76.17
2022-11-20T15:15:26.927Z,78.64
2022-11-20T15:17:54.888Z,80.39
2022-11-20T15:20:25.952Z,78.60
2022-11-20T15:22:53.349Z,78.00
2022-11-20T15:25:21.508Z,77.26
2022-11-20T15:27:54.972Z,79.68
2022-11-20T15:30:23.429Z,79.32
2022-11-20T15:32:50.820Z,79.51
2022-11-20T15:35:18.510Z,78.18
2022-11-20T15:37:45.933Z,77.83
2022-11-20T15:40:14.117Z,77.29
2022-11-20T15:43:02.379Z,76.75
2022-11-20T15:45:35.468Z,77.47
2022-11-20T15:48:03.293Z,78.01
2022-11-20T15:50:37.997Z,80.75
2022-11-20T15:53:06.062Z,82.35
2022-11-20T15:55:33.588Z,80.18
2022-11-20T15:58:00.975Z,79.51
2022-11-20T16:00:28.470Z,79.35
2022-11-20T16:02:57.177Z,78.22
2022-11-20T16:05:25.011Z,78.58
2022-11-20T16:07:52.912Z,79.79
2022-11-20T16:10:20.369Z,81.93
2022-11-20T16:13:05.362Z,80.11
2022-11-20T16:15:48.825Z,81.36
2022-11-20T16:18:21.457Z,81.84
2022-11-20T16:20:53.797Z,83.40
2022-11-20T16:23:22.244Z,83.94
2022-11-20T16:25:50.199Z,82.77
2022-11-20T16:28:19.339Z,80.20
2022-11-20T16:30:47.182Z,79.26
2022-11-20T16:33:16.139Z,81.97
2022-11-20T16:35:45.362Z,82.21
2022-11-20T16:38:12.815Z,85.88
2022-11-20T16:40:40.266Z,87.98
2022-11-20T16:43:11.493Z,84.66
2022-11-20T16:45:43.485Z,81.72
2022-11-20T16:48:15.419Z,79.90
2022-11-20T16:50:52.262Z,82.81
2022-11-20T16:53:20.766Z,82.63
2022-11-20T16:55:48.322Z,83.83
2022-11-20T16:58:16.027Z,81.80
2022-11-20T17:00:49.960Z,79.31
2022-11-20T17:03:18.891Z,81.32
2022-11-20T17:05:46.333Z,80.85
2022-11-20T17:08:15.030Z,79.27
2022-11-20T17:10:42.752Z,81.44
2022-11-20T17:13:10.147Z,80.84
2022-11-20T17:15:37.536Z,78.77
2022-11-20T17:18:05.171Z,78.16
2022-11-20T17:20:32.615Z,76.62
2022-11-20T17:22:59.987Z,78.45
2022-11-20T17:25:28.710Z,78.13
2022-11-20T17:27:56.077Z,79.22
2022-11-20T17:30:23.449Z,79.43
2022-11-20T17:32:50.921Z,78.04
2022-11-20T17:35:18.296Z,81.71
2022-11-20T17:37:45.688Z,79.19
2022-11-20T17:40:13.372Z,80.78
2022-11-20T17:42:42.089Z,78.70
2022-11-20T17:45:09.631Z,77.63
2022-11-20T17:47:37.227Z,80.67
2022-11-20T17:50:04.903Z,79.15
2022-11-20T17:52:32.376Z,80.12
2022-11-20T17:54:59.755Z,79.66
2022-11-20T17:57:44.632Z,81.64
2022-11-20T18:00:16.479Z,79.16
2022-11-20T18:02:43.849Z,80.15
2022-11-20T18:05:11.423Z,79.55
2022-11-20T18:07:41.812Z,77.72
2022-11-20T18:10:10.926Z,75.99
2022-11-20T18:12:38.372Z,83.19
2022-11-20T18:15:06.282Z,79.61
2022-11-20T18:17:35.259Z,78.96
2022-11-20T18:22:50.078Z,77.41
2022-11-20T18:25:17.490Z,79.89
2022-11-20T18:27:45.232Z,81.11
2022-11-20T18:30:14.077Z,78.75
2022-11-20T18:32:42.868Z,77.27
2022-11-20T18:35:10.745Z,78.13
2022-11-20T18:37:38.098Z,79.77
2022-11-20T18:40:06.639Z,79.38
2022-11-20T18:42:51.824Z,81.65
2022-11-20T18:45:19.241Z,80.12
2022-11-20T18:47:47.958Z,80.97
2022-11-20T18:50:15.334Z,78.68
2022-11-20T18:52:44.567Z,79.15
2022-11-20T18:55:12.991Z,81.08
2022-11-20T18:57:40.410Z,81.95
2022-11-20T19:00:09.920Z,80.28
2022-11-20T19:02:42.994Z,80.04
2022-11-20T19:05:12.417Z,78.40
2022-11-20T19:07:40.272Z,77.78
2022-11-20T19:10:08.572Z,78.07
2022-11-20T19:12:35.987Z,78.95
2022-11-20T19:15:03.621Z,79.45
2022-11-20T19:17:31.074Z,78.99
2022-11-20T19:19:58.570Z,78.33
2022-11-20T19:22:27.330Z,78.28
2022-11-20T19:24:54.719Z,81.92
2022-11-20T19:27:22.170Z,82.13
2022-11-20T19:29:49.829Z,79.98
2022-11-20T19:32:17.263Z,80.28
2022-11-20T19:34:44.692Z,78.30
2022-11-20T19:37:12.140Z,77.86
2022-11-20T19:39:40.868Z,77.14
2022-11-20T19:42:08.304Z,78.44
2022-11-20T19:44:35.838Z,77.04
2022-11-20T19:47:08.954Z,77.72
2022-11-20T19:49:40.055Z,77.74
2022-11-20T19:52:07.450Z,78.01
2022-11-20T19:54:34.931Z,77.36
2022-11-20T19:57:03.650Z,76.97
2022-11-20T19:59:31.125Z,77.23
2022-11-20T20:01:58.574Z,76.62
2022-11-20T20:04:26.119Z,77.65
2022-11-20T20:06:53.497Z,78.16
2022-11-20T20:09:23.596Z,77.96
2022-11-20T20:11:51.229Z,77.66
2022-11-20T20:14:20.044Z,77.65
2022-11-20T20:16:47.766Z,78.29
2022-11-20T20:19:16.419Z,78.34
2022-11-20T20:21:44.027Z,76.79
2022-11-20T20:24:12.946Z,77.81
2022-11-20T20:26:40.756Z,77.12
2022-11-20T20:29:08.181Z,79.65
2022-11-20T20:31:36.923Z,80.29
2022-11-20T20:34:05.917Z,80.30
2022-11-20T20:36:33.557Z,79.89
2022-11-20T20:39:02.615Z,79.23
2022-11-20T20:41:30.090Z,78.88
2022-11-20T20:44:15.251Z,78.12
2022-11-20T20:46:43.984Z,79.75
2022-11-20T20:49:11.351Z,79.65
2022-11-20T20:51:38.753Z,78.73
2022-11-20T20:54:06.514Z,79.60
2022-11-20T20:56:33.917Z,78.80
2022-11-20T20:59:01.414Z,77.92
2022-11-20T21:01:29.615Z,78.66
2022-11-20T21:03:58.999Z,77.94
2022-11-20T21:06:26.634Z,77.49
2022-11-20T21:08:55.821Z,77.90
2022-11-20T21:11:23.322Z,78.59
2022-11-20T21:13:50.840Z,77.73
2022-11-20T21:16:20.645Z,81.26
2022-11-20T21:18:48.045Z,81.27
2022-11-20T21:21:35.115Z,80.45
2022-11-20T21:24:02.814Z,79.84
2022-11-20T21:26:30.251Z,78.25
2022-11-20T21:28:57.895Z,80.29
2022-11-20T21:31:27.497Z,81.69
2022-11-20T21:33:56.397Z,80.11
2022-11-20T21:36:26.812Z,79.65
2022-11-20T21:38:55.522Z,79.98
2022-11-20T21:41:24.382Z,81.41
2022-11-20T21:44:23.605Z,84.78
2022-11-20T21:46:41.212Z,81.28
2022-11-20T21:49:08.691Z,79.81
2022-11-20T21:51:37.442Z,79.36
2022-11-20T21:54:05.108Z,80.15
2022-11-20T21:56:32.515Z,79.68
2022-11-20T21:59:00.502Z,79.63
2022-11-20T22:01:30.219Z,79.79
2022-11-20T22:03:59.223Z,79.36
2022-11-20T22:06:27.997Z,79.11
2022-11-20T22:08:56.715Z,79.41
2022-11-20T22:11:24.136Z,79.33
2022-11-20T22:14:09.017Z,79.21
2022-11-20T22:16:37.534Z,80.09
2022-11-20T22:19:06.361Z,80.61
2022-11-20T22:21:34.359Z,80.95
2022-11-20T22:24:03.566Z,80.71
2022-11-20T22:26:40.008Z,79.77
2022-11-20T22:29:08.902Z,80.21
2022-11-20T22:31:36.320Z,82.62
2022-11-20T22:34:04.513Z,81.17
2022-11-20T22:36:33.024Z,79.59
2022-11-20T22:39:05.179Z,80.50
2022-11-20T22:41:33.107Z,79.69
2022-11-20T22:44:01.966Z,80.77
2022-11-20T22:46:31.913Z,79.76
2022-11-20T22:49:01.168Z,80.13
2022-11-20T22:51:29.988Z,80.21
2022-11-20T22:53:57.672Z,82.92
2022-11-20T22:56:26.727Z,82.74
2022-11-20T22:58:55.234Z,81.74
2022-11-20T23:01:24.667Z,81.10
2022-11-20T23:03:53.963Z,81.10
2022-11-20T23:06:22.453Z,80.43
2022-11-20T23:08:50.926Z,81.19
2022-11-20T23:11:20.775Z,81.94
2022-11-20T23:13:54.115Z,82.00
2022-11-20T23:16:21.531Z,82.17
2022-11-20T23:18:48.968Z,81.38
2022-11-20T23:21:18.844Z,80.75
2022-11-20T23:23:49.684Z,86.18
2022-11-20T23:26:18.303Z,84.50
2022-11-20T23:28:46.006Z,83.78
2022-11-20T23:31:16.159Z,83.17
2022-11-20T23:33:45.844Z,82.69
2022-11-20T23:36:13.999Z,84.15
2022-11-20T23:38:42.138Z,87.53
2022-11-20T23:41:09.782Z,81.22
2022-11-20T23:43:37.187Z,81.58
2022-11-20T23:46:05.289Z,82.29
2022-11-20T23:48:36.235Z,78.15
2022-11-20T23:51:04.812Z,83.93
2022-11-20T23:53:32.732Z,81.21
2022-11-20T23:56:02.793Z,78.65
2022-11-20T23:58:32.676Z,78.99
